createdAt,value
2024-05-09T00:00:01.588Z,10
2024-05-09T00:01:01.637Z,10
2024-05-09T00:02:01.603Z,9
2024-05-09T00:03:01.615Z,9
2024-05-09T00:04:01.667Z,9
2024-05-09T00:05:01.717Z,9
2024-05-09T00:06:01.918Z,8
2024-05-09T00:07:01.582Z,8
2024-05-09T00:08:01.748Z,8
2024-05-09T00:09:01.634Z,9
2024-05-09T00:10:01.580Z,8
2024-05-09T00:11:01.900Z,8
2024-05-09T00:12:01.824Z,9
2024-05-09T00:13:01.580Z,9
2024-05-09T00:14:01.624Z,9
2024-05-09T00:15:01.595Z,9
2024-05-09T00:16:01.594Z,11
2024-05-09T00:17:01.585Z,9
2024-05-09T00:18:01.937Z,9
2024-05-09T00:19:01.660Z,9
2024-05-09T00:20:01.644Z,9
2024-05-09T00:21:02.068Z,9
2024-05-09T00:22:01.583Z,9
2024-05-09T00:23:01.661Z,9
2024-05-09T00:24:01.588Z,9
2024-05-09T00:25:01.588Z,9
2024-05-09T00:26:01.657Z,10
2024-05-09T00:27:01.584Z,9
2024-05-09T00:28:01.592Z,9
2024-05-09T00:29:01.695Z,9
2024-05-09T00:30:01.626Z,10
2024-05-09T00:31:01.591Z,10
2024-05-09T00:32:01.685Z,9
2024-05-09T00:33:01.777Z,9
2024-05-09T00:34:01.761Z,9
2024-05-09T00:35:01.647Z,10
2024-05-09T00:36:01.592Z,10
2024-05-09T00:37:01.599Z,9
2024-05-09T00:38:01.968Z,9
2024-05-09T00:39:01.584Z,9
2024-05-09T00:40:01.594Z,10
2024-05-09T00:41:01.671Z,9
2024-05-09T00:42:01.986Z,10
2024-05-09T00:43:01.592Z,9
2024-05-09T00:44:01.648Z,9
2024-05-09T00:45:01.612Z,9
2024-05-09T00:46:01.619Z,9
2024-05-09T00:47:01.633Z,9
2024-05-09T00:48:01.864Z,9
2024-05-09T00:49:01.720Z,9
2024-05-09T00:50:01.714Z,10
2024-05-09T00:51:01.704Z,9
2024-05-09T00:52:01.607Z,9
2024-05-09T00:53:01.647Z,10
2024-05-09T00:54:01.613Z,9
2024-05-09T00:55:01.629Z,9
2024-05-09T00:56:01.701Z,10
2024-05-09T00:57:01.594Z,9
2024-05-09T00:58:01.633Z,10
2024-05-09T00:59:01.656Z,10
2024-05-09T01:00:01.603Z,10
2024-05-09T01:01:01.671Z,9
2024-05-09T01:02:01.790Z,10
2024-05-09T01:03:01.941Z,9
2024-05-09T01:04:01.746Z,9
2024-05-09T01:05:01.713Z,9
2024-05-09T01:06:01.688Z,10
2024-05-09T01:07:01.620Z,10
2024-05-09T01:08:02.067Z,9
2024-05-09T01:09:01.617Z,9
2024-05-09T01:10:01.599Z,10
2024-05-09T01:11:01.912Z,9
2024-05-09T01:12:01.753Z,9
2024-05-09T01:13:01.643Z,10
2024-05-09T01:14:01.689Z,9
2024-05-09T01:15:01.640Z,10
2024-05-09T01:16:01.624Z,10
2024-05-09T01:17:01.682Z,10
2024-05-09T01:18:02.156Z,10
2024-05-09T01:19:01.697Z,10
2024-05-09T01:20:01.686Z,9
2024-05-09T01:21:01.750Z,9
2024-05-09T01:22:01.599Z,11
2024-05-09T01:23:01.665Z,10
2024-05-09T01:24:01.617Z,10
2024-05-09T01:25:01.651Z,10
2024-05-09T01:26:01.668Z,10
2024-05-09T01:27:01.623Z,10
2024-05-09T01:28:01.694Z,10
2024-05-09T01:29:01.681Z,10
2024-05-09T01:30:01.631Z,11
2024-05-09T01:31:01.655Z,9
2024-05-09T01:32:01.695Z,9
2024-05-09T01:33:02.090Z,10
2024-05-09T01:34:01.651Z,10
2024-05-09T01:35:01.732Z,10
2024-05-09T01:36:01.607Z,10
2024-05-09T01:37:01.607Z,11
2024-05-09T01:38:01.705Z,10
2024-05-09T01:39:01.601Z,11
2024-05-09T01:40:01.620Z,10
2024-05-09T01:41:01.664Z,11
2024-05-09T01:42:01.610Z,11
2024-05-09T01:43:01.606Z,11
2024-05-09T01:44:01.801Z,10
2024-05-09T01:45:01.627Z,11
2024-05-09T01:46:01.615Z,10
2024-05-09T01:47:01.638Z,10
2024-05-09T01:48:02.544Z,10
2024-05-09T01:49:01.786Z,11
2024-05-09T01:50:01.743Z,10
2024-05-09T01:51:01.644Z,11
2024-05-09T01:52:01.614Z,11
2024-05-09T01:53:01.709Z,11
2024-05-09T01:54:01.616Z,10
2024-05-09T01:55:05.578Z,10
2024-05-09T01:56:01.675Z,10
2024-05-09T01:57:01.614Z,9
2024-05-09T01:58:01.621Z,10
2024-05-09T01:59:01.671Z,10
2024-05-09T02:00:01.621Z,10
2024-05-09T02:01:01.658Z,9
2024-05-09T02:02:01.863Z,10
2024-05-09T02:03:02.134Z,11
2024-05-09T02:04:02.094Z,11
2024-05-09T02:05:01.710Z,10
2024-05-09T02:06:01.927Z,10
2024-05-09T02:07:01.627Z,11
2024-05-09T02:08:01.697Z,11
2024-05-09T02:09:01.632Z,10
2024-05-09T02:10:01.613Z,10
2024-05-09T02:11:01.814Z,9
2024-05-09T02:12:01.897Z,10
2024-05-09T02:13:01.642Z,9
2024-05-09T02:14:01.677Z,10
2024-05-09T02:15:01.618Z,10
2024-05-09T02:16:01.622Z,10
2024-05-09T02:17:01.773Z,9
2024-05-09T02:18:01.827Z,11
2024-05-09T02:19:01.814Z,11
2024-05-09T02:20:01.702Z,10
2024-05-09T02:21:01.770Z,10
2024-05-09T02:22:01.676Z,11
2024-05-09T02:23:01.683Z,11
2024-05-09T02:24:01.634Z,11
2024-05-09T02:25:01.636Z,11
2024-05-09T02:26:01.715Z,10
2024-05-09T02:27:01.653Z,10
2024-05-09T02:28:01.636Z,11
2024-05-09T02:29:01.695Z,10
2024-05-09T02:30:01.650Z,11
2024-05-09T02:31:01.644Z,10
2024-05-09T02:32:01.734Z,12
2024-05-09T02:33:01.811Z,11
2024-05-09T02:34:01.988Z,11
2024-05-09T02:35:01.702Z,10
2024-05-09T02:36:01.633Z,10
2024-05-09T02:37:01.631Z,10
2024-05-09T02:38:01.754Z,10
2024-05-09T02:39:01.677Z,11
2024-05-09T02:40:01.639Z,11
2024-05-09T02:41:01.675Z,11
2024-05-09T02:42:01.642Z,11
2024-05-09T02:43:01.630Z,10
2024-05-09T02:44:01.680Z,11
2024-05-09T02:45:01.639Z,11
2024-05-09T02:46:01.639Z,11
2024-05-09T02:47:01.683Z,11
2024-05-09T02:48:02.321Z,11
2024-05-09T02:49:04.546Z,11
2024-05-09T02:50:01.660Z,11
2024-05-09T02:51:01.693Z,11
2024-05-09T02:52:01.648Z,10
2024-05-09T02:53:01.679Z,11
2024-05-09T02:54:01.643Z,10
2024-05-09T02:55:01.649Z,11
2024-05-09T02:56:01.682Z,11
2024-05-09T02:57:01.632Z,10
2024-05-09T02:58:01.638Z,11
2024-05-09T02:59:01.693Z,11
2024-05-09T03:00:01.647Z,10
2024-05-09T03:01:01.724Z,11
2024-05-09T03:02:01.739Z,10
2024-05-09T03:03:01.921Z,12
2024-05-09T03:04:01.840Z,12
2024-05-09T03:05:01.708Z,12
2024-05-09T03:06:01.641Z,12
2024-05-09T03:07:01.649Z,11
2024-05-09T03:08:01.780Z,11
2024-05-09T03:09:01.666Z,11
2024-05-09T03:10:01.641Z,12
2024-05-09T03:11:01.731Z,12
2024-05-09T03:12:01.763Z,12
2024-05-09T03:13:01.642Z,12
2024-05-09T03:14:01.687Z,12
2024-05-09T03:15:01.651Z,12
2024-05-09T03:16:01.645Z,11
2024-05-09T03:17:01.694Z,10
2024-05-09T03:18:02.002Z,11
2024-05-09T03:19:01.735Z,12
2024-05-09T03:20:01.705Z,12
2024-05-09T03:21:01.778Z,12
2024-05-09T03:22:01.646Z,12
2024-05-09T03:23:01.733Z,13
2024-05-09T03:24:01.681Z,12
2024-05-09T03:25:01.655Z,11
2024-05-09T03:26:01.727Z,11
2024-05-09T03:27:01.651Z,11
2024-05-09T03:28:01.676Z,11
2024-05-09T03:29:01.676Z,12
2024-05-09T03:30:02.015Z,11
2024-05-09T03:31:01.665Z,12
2024-05-09T03:32:01.773Z,12
2024-05-09T03:33:01.878Z,12
2024-05-09T03:34:01.887Z,12
2024-05-09T03:35:01.743Z,12
2024-05-09T03:36:01.663Z,11
2024-05-09T03:37:01.644Z,12
2024-05-09T03:38:01.689Z,12
2024-05-09T03:39:01.668Z,13
2024-05-09T03:40:02.027Z,11
2024-05-09T03:41:01.751Z,12
2024-05-09T03:42:01.649Z,12
2024-05-09T03:43:01.665Z,12
2024-05-09T03:44:01.699Z,11
2024-05-09T03:45:01.674Z,12
2024-05-09T03:46:01.654Z,12
2024-05-09T03:47:01.716Z,12
2024-05-09T03:48:01.822Z,11
2024-05-09T03:50:01.705Z,13
2024-05-09T03:51:01.759Z,12
2024-05-09T03:52:01.657Z,11
2024-05-09T03:53:01.933Z,12
2024-05-09T03:54:01.656Z,12
2024-05-09T03:55:01.667Z,13
2024-05-09T03:56:01.722Z,12
2024-05-09T03:57:01.658Z,12
2024-05-09T03:58:01.672Z,12
2024-05-09T03:59:01.693Z,12
2024-05-09T04:00:01.667Z,12
2024-05-09T04:01:01.844Z,11
2024-05-09T04:02:01.747Z,12
2024-05-09T04:03:02.079Z,12
2024-05-09T04:04:01.693Z,12
2024-05-09T04:05:01.728Z,12
2024-05-09T04:06:01.664Z,12
2024-05-09T04:07:01.667Z,12
2024-05-09T04:08:01.812Z,11
2024-05-09T04:09:01.666Z,12
2024-05-09T04:10:01.679Z,11
2024-05-09T04:11:01.802Z,12
2024-05-09T04:12:01.840Z,12
2024-05-09T04:13:01.948Z,12
2024-05-09T04:14:01.725Z,13
2024-05-09T04:15:01.660Z,12
2024-05-09T04:16:01.700Z,12
2024-05-09T04:17:01.738Z,11
2024-05-09T04:18:02.484Z,12
2024-05-09T04:19:01.770Z,12
2024-05-09T04:20:01.681Z,13
2024-05-09T04:21:01.837Z,11
2024-05-09T04:22:01.680Z,12
2024-05-09T04:23:01.730Z,12
2024-05-09T04:24:01.666Z,11
2024-05-09T04:25:01.667Z,12
2024-05-09T04:26:01.709Z,12
2024-05-09T04:27:01.668Z,13
2024-05-09T04:28:01.666Z,12
2024-05-09T04:29:01.825Z,11
2024-05-09T04:30:01.687Z,12
2024-05-09T04:31:01.674Z,11
2024-05-09T04:32:02.752Z,12
2024-05-09T04:33:01.833Z,11
2024-05-09T04:34:01.817Z,13
2024-05-09T04:35:01.711Z,12
2024-05-09T04:36:01.667Z,11
2024-05-09T04:37:01.674Z,12
2024-05-09T04:38:01.737Z,12
2024-05-09T04:39:01.671Z,11
2024-05-09T04:40:01.702Z,12
2024-05-09T04:41:01.823Z,12
2024-05-09T04:42:01.674Z,12
2024-05-09T04:43:01.670Z,12
2024-05-09T04:44:01.767Z,11
2024-05-09T04:45:01.710Z,12
2024-05-09T04:46:01.713Z,12
2024-05-09T04:47:01.724Z,12
2024-05-09T04:49:01.750Z,12
2024-05-09T04:50:01.783Z,12
2024-05-09T04:51:01.721Z,14
2024-05-09T04:52:01.674Z,12
2024-05-09T04:53:01.789Z,13
2024-05-09T04:54:01.690Z,13
2024-05-09T04:55:01.686Z,13
2024-05-09T04:56:01.731Z,13
2024-05-09T04:57:01.677Z,12
2024-05-09T04:58:01.856Z,13
2024-05-09T04:59:01.742Z,13
2024-05-09T05:00:01.691Z,12
2024-05-09T05:01:01.710Z,12
2024-05-09T05:02:01.849Z,13
2024-05-09T05:03:01.965Z,13
2024-05-09T05:04:01.886Z,12
2024-05-09T05:05:01.776Z,12
2024-05-09T05:06:01.846Z,12
2024-05-09T05:07:02.974Z,12
2024-05-09T05:08:01.781Z,12
2024-05-09T05:09:01.680Z,10
2024-05-09T05:10:01.691Z,12
2024-05-09T05:11:01.803Z,12
2024-05-09T05:12:01.792Z,13
2024-05-09T05:13:01.760Z,13
2024-05-09T05:14:01.709Z,14
2024-05-09T05:15:01.697Z,12
2024-05-09T05:16:01.675Z,12
2024-05-09T05:17:01.763Z,13
2024-05-09T05:18:01.848Z,14
2024-05-09T05:19:01.784Z,14
2024-05-09T05:20:01.834Z,13
2024-05-09T05:21:01.752Z,13
2024-05-09T05:22:01.683Z,14
2024-05-09T05:23:01.815Z,15
2024-05-09T05:24:01.690Z,15
2024-05-09T05:25:01.686Z,14
2024-05-09T05:26:01.732Z,12
2024-05-09T05:27:01.688Z,13
2024-05-09T05:28:01.701Z,13
2024-05-09T05:29:01.779Z,12
2024-05-09T05:30:01.706Z,13
2024-05-09T05:31:01.689Z,14
2024-05-09T05:32:01.797Z,15
2024-05-09T05:33:01.931Z,14
2024-05-09T05:34:01.778Z,15
2024-05-09T05:35:01.739Z,15
2024-05-09T05:36:01.713Z,14
2024-05-09T05:37:01.691Z,12
2024-05-09T05:38:01.824Z,14
2024-05-09T05:39:01.683Z,15
2024-05-09T05:40:01.693Z,14
2024-05-09T05:41:01.745Z,14
2024-05-09T05:42:01.715Z,15
2024-05-09T05:43:01.726Z,15
2024-05-09T05:44:01.754Z,15
2024-05-09T05:45:01.694Z,15
2024-05-09T05:46:01.694Z,15
2024-05-09T05:47:01.829Z,15
2024-05-09T05:48:01.968Z,15
2024-05-09T05:49:01.815Z,15
2024-05-09T05:50:01.770Z,15
2024-05-09T05:51:04.201Z,14
2024-05-09T05:52:01.697Z,14
2024-05-09T05:53:01.803Z,15
2024-05-09T05:54:01.709Z,15
2024-05-09T05:55:01.702Z,15
2024-05-09T05:56:01.859Z,15
2024-05-09T05:57:01.705Z,15
2024-05-09T05:58:01.710Z,15
2024-05-09T05:59:01.748Z,14
2024-05-09T06:00:01.710Z,17
2024-05-09T06:01:01.750Z,14
2024-05-09T06:02:01.732Z,15
2024-05-09T06:03:02.834Z,16
2024-05-09T06:04:01.763Z,14
2024-05-09T06:05:01.864Z,15
2024-05-09T06:06:01.830Z,15
2024-05-09T06:07:01.708Z,15
2024-05-09T06:08:01.745Z,15
2024-05-09T06:09:01.713Z,14
2024-05-09T06:10:01.703Z,15
2024-05-09T06:11:01.894Z,15
2024-05-09T06:12:02.051Z,15
2024-05-09T06:13:01.700Z,15
2024-05-09T06:14:01.771Z,15
2024-05-09T06:15:01.706Z,16
2024-05-09T06:16:01.701Z,14
2024-05-09T06:17:01.742Z,14
2024-05-09T06:18:02.180Z,15
2024-05-09T06:19:01.783Z,16
2024-05-09T06:20:01.779Z,15
2024-05-09T06:21:01.878Z,13
2024-05-09T06:22:01.712Z,15
2024-05-09T06:23:01.848Z,14
2024-05-09T06:24:04.489Z,14
2024-05-09T06:25:01.729Z,15
2024-05-09T06:26:01.782Z,15
2024-05-09T06:27:01.737Z,17
2024-05-09T06:28:01.790Z,14
2024-05-09T06:29:01.739Z,16
2024-05-09T06:30:01.709Z,16
2024-05-09T06:31:01.709Z,15
2024-05-09T06:32:01.807Z,15
2024-05-09T06:33:01.842Z,17
2024-05-09T06:34:01.939Z,16
2024-05-09T06:35:01.745Z,16
2024-05-09T06:36:01.711Z,17
2024-05-09T06:37:01.715Z,16
2024-05-09T06:38:02.132Z,17
2024-05-09T06:39:01.716Z,17
2024-05-09T06:40:01.713Z,16
2024-05-09T06:41:01.784Z,17
2024-05-09T06:42:01.963Z,16
2024-05-09T06:43:01.719Z,17
2024-05-09T06:44:01.786Z,17
2024-05-09T06:45:01.729Z,16
2024-05-09T06:46:01.730Z,16
2024-05-09T06:47:01.784Z,17
2024-05-09T06:48:01.895Z,16
2024-05-09T06:49:01.953Z,16
2024-05-09T06:50:01.734Z,18
2024-05-09T06:51:01.729Z,18
2024-05-09T06:52:01.725Z,19
2024-05-09T06:53:01.767Z,17
2024-05-09T06:54:01.724Z,16
2024-05-09T06:55:01.726Z,17
2024-05-09T06:56:01.763Z,16
2024-05-09T06:57:01.743Z,16
2024-05-09T06:58:01.769Z,17
2024-05-09T06:59:01.807Z,15
2024-05-09T07:00:01.726Z,17
2024-05-09T07:01:01.768Z,17
2024-05-09T07:02:01.778Z,17
2024-05-09T07:03:05.356Z,16
2024-05-09T07:04:01.859Z,15
2024-05-09T07:05:02.002Z,17
2024-05-09T07:06:01.850Z,17
2024-05-09T07:07:01.725Z,16
2024-05-09T07:08:01.796Z,17
2024-05-09T07:09:01.748Z,18
2024-05-09T07:10:01.727Z,16
2024-05-09T07:11:01.814Z,16
2024-05-09T07:12:01.884Z,16
2024-05-09T07:13:01.761Z,17
2024-05-09T07:14:01.782Z,17
2024-05-09T07:15:01.733Z,17
2024-05-09T07:16:01.736Z,17
2024-05-09T07:17:01.860Z,16
2024-05-09T07:18:01.949Z,16
2024-05-09T07:19:01.872Z,16
2024-05-09T07:20:01.827Z,13
2024-05-09T07:21:01.879Z,14
2024-05-09T07:22:01.740Z,14
2024-05-09T07:23:01.836Z,15
2024-05-09T07:24:01.734Z,16
2024-05-09T07:25:01.731Z,15
2024-05-09T07:26:01.785Z,15
2024-05-09T07:27:01.739Z,15
2024-05-09T07:28:01.754Z,13
2024-05-09T07:29:01.802Z,15
2024-05-09T07:30:01.750Z,15
2024-05-09T07:31:01.753Z,15
2024-05-09T07:32:01.793Z,14
2024-05-09T07:33:02.582Z,15
2024-05-09T07:34:01.870Z,15
2024-05-09T07:35:01.821Z,15
2024-05-09T07:36:01.745Z,15
2024-05-09T07:37:01.742Z,14
2024-05-09T07:38:01.793Z,15
2024-05-09T07:39:01.760Z,13
2024-05-09T07:40:01.753Z,12
2024-05-09T07:41:01.791Z,13
2024-05-09T07:42:01.753Z,14
2024-05-09T07:43:01.758Z,14
2024-05-09T07:44:01.808Z,14
2024-05-09T07:45:21.044Z,15
2024-05-09T07:46:51.620Z,13
2024-05-09T07:50:53.110Z,14
2024-05-09T07:53:08.034Z,14
2024-05-09T07:53:25.364Z,15
2024-05-09T07:53:36.095Z,14
2024-05-09T07:54:02.379Z,14
2024-05-09T07:55:01.980Z,14
2024-05-09T07:56:01.904Z,13
2024-05-09T07:57:02.012Z,14
2024-05-09T07:58:01.797Z,13
2024-05-09T07:59:01.752Z,14
2024-05-09T08:00:01.767Z,14
2024-05-09T08:01:01.858Z,14
2024-05-09T08:02:02.097Z,13
2024-05-09T08:03:01.817Z,13
2024-05-09T08:04:01.911Z,14
2024-05-09T08:05:01.879Z,14
2024-05-09T08:06:01.781Z,15
2024-05-09T08:07:01.850Z,15
2024-05-09T08:08:01.796Z,13
2024-05-09T08:09:05.469Z,13
2024-05-09T08:10:01.789Z,12
2024-05-09T08:11:01.756Z,13
2024-05-09T08:12:01.774Z,12
2024-05-09T08:13:01.867Z,13
2024-05-09T08:14:01.767Z,12
2024-05-09T08:15:01.817Z,13
2024-05-09T08:16:01.866Z,13
2024-05-09T08:17:01.829Z,13
2024-05-09T08:18:02.033Z,13
2024-05-09T08:19:01.822Z,13
2024-05-09T08:20:04.400Z,13
2024-05-09T08:21:01.800Z,14
2024-05-09T08:22:01.808Z,12
2024-05-09T08:23:01.816Z,11
2024-05-09T08:24:01.767Z,11
2024-05-09T08:25:01.785Z,11
2024-05-09T08:26:01.761Z,10
2024-05-09T08:27:01.774Z,11
2024-05-09T08:28:01.799Z,10
2024-05-09T08:29:01.791Z,12
2024-05-09T08:30:01.843Z,10
2024-05-09T08:31:05.020Z,9
2024-05-09T08:32:02.028Z,11
2024-05-09T08:33:01.846Z,10
2024-05-09T08:34:02.082Z,10
2024-05-09T08:35:01.871Z,9
2024-05-09T08:36:01.783Z,10
2024-05-09T08:37:10.029Z,10
2024-05-09T08:38:01.866Z,10
2024-05-09T08:39:01.767Z,10
2024-05-09T08:40:01.795Z,9
2024-05-09T08:41:01.774Z,9
2024-05-09T08:42:01.810Z,9
2024-05-09T08:43:01.799Z,8
2024-05-09T08:44:01.779Z,9
2024-05-09T08:45:01.778Z,9
2024-05-09T08:46:01.880Z,9
2024-05-09T08:47:01.783Z,8
2024-05-09T08:48:01.855Z,8
2024-05-09T08:49:01.991Z,8
2024-05-09T08:50:01.962Z,8
2024-05-09T08:51:01.776Z,9
2024-05-09T08:52:01.876Z,8
2024-05-09T08:53:01.770Z,8
2024-05-09T08:54:01.786Z,9
2024-05-09T08:55:01.907Z,9
2024-05-09T08:56:01.784Z,8
2024-05-09T08:57:01.869Z,8
2024-05-09T08:58:01.866Z,8
2024-05-09T08:59:01.788Z,8
2024-05-09T09:00:01.784Z,8
2024-05-09T09:01:01.865Z,7
2024-05-09T09:02:01.889Z,9
2024-05-09T09:03:01.815Z,7
2024-05-09T09:04:02.310Z,7
2024-05-09T09:05:01.974Z,8
2024-05-09T09:06:01.840Z,7
2024-05-09T09:07:03.541Z,6
2024-05-09T09:08:01.777Z,7
2024-05-09T09:09:01.820Z,7
2024-05-09T09:10:01.853Z,8
2024-05-09T09:11:01.807Z,7
2024-05-09T09:12:01.902Z,7
2024-05-09T09:13:01.814Z,8
2024-05-09T09:14:01.795Z,8
2024-05-09T09:15:01.797Z,8
2024-05-09T09:16:01.868Z,8
2024-05-09T09:17:01.786Z,8
2024-05-09T09:18:01.977Z,8
2024-05-09T09:19:01.961Z,7
2024-05-09T09:20:01.950Z,6
2024-05-09T09:21:01.806Z,7
2024-05-09T09:22:01.811Z,7
2024-05-09T09:23:01.797Z,8
2024-05-09T09:24:01.802Z,7
2024-05-09T09:25:02.285Z,8
2024-05-09T09:26:01.873Z,7
2024-05-09T09:27:01.807Z,8
2024-05-09T09:28:01.841Z,8
2024-05-09T09:29:01.799Z,8
2024-05-09T09:30:01.802Z,8
2024-05-09T09:31:02.027Z,8
2024-05-09T09:32:01.819Z,8
2024-05-09T09:33:01.876Z,8
2024-05-09T09:34:01.980Z,9
2024-05-09T09:35:01.876Z,8
2024-05-09T09:36:01.844Z,8
2024-05-09T09:37:01.819Z,8
2024-05-09T09:38:02.002Z,7
2024-05-09T09:39:01.800Z,8
2024-05-09T09:40:01.878Z,7
2024-05-09T09:41:02.077Z,7
2024-05-09T09:42:01.816Z,7
2024-05-09T09:43:01.869Z,8
2024-05-09T09:44:01.805Z,8
2024-05-09T09:45:05.253Z,8
2024-05-09T09:46:02.659Z,9
2024-05-09T09:47:01.850Z,9
2024-05-09T09:48:01.884Z,8
2024-05-09T09:49:01.947Z,9
2024-05-09T09:50:01.813Z,8
2024-05-09T09:51:01.850Z,9
2024-05-09T09:52:01.872Z,8
2024-05-09T09:53:01.852Z,7
2024-05-09T09:54:01.821Z,9
2024-05-09T09:55:01.931Z,8
2024-05-09T09:56:01.874Z,8
2024-05-09T09:57:01.811Z,7
2024-05-09T09:58:01.902Z,9
2024-05-09T09:59:01.815Z,8
2024-05-09T10:00:01.880Z,8
2024-05-09T10:01:01.955Z,9
2024-05-09T10:02:02.087Z,7
2024-05-09T10:03:02.190Z,7
2024-05-09T10:04:01.991Z,8
2024-05-09T10:05:02.020Z,8
2024-05-09T10:06:01.892Z,7
2024-05-09T10:07:02.664Z,8
2024-05-09T10:08:01.824Z,8
2024-05-09T10:09:01.832Z,9
2024-05-09T10:10:01.875Z,9
2024-05-09T10:11:01.937Z,8
2024-05-09T10:12:01.879Z,7
2024-05-09T10:13:01.948Z,9
2024-05-09T10:14:01.828Z,8
2024-05-09T10:15:01.832Z,8
2024-05-09T10:16:01.880Z,7
2024-05-09T10:17:01.867Z,7
2024-05-09T10:18:02.038Z,7
2024-05-09T10:19:01.928Z,7
2024-05-09T10:20:01.987Z,7
2024-05-09T10:21:01.826Z,7
2024-05-09T10:22:01.892Z,7
2024-05-09T10:23:01.830Z,6
2024-05-09T10:24:01.862Z,6
2024-05-09T10:25:04.717Z,6
2024-05-09T10:26:01.942Z,6
2024-05-09T10:27:01.828Z,5
2024-05-09T10:28:01.884Z,6
2024-05-09T10:29:01.830Z,6
2024-05-09T10:30:02.836Z,6
2024-05-09T10:31:01.871Z,7
2024-05-09T10:32:01.833Z,7
2024-05-09T10:33:01.908Z,6
2024-05-09T10:34:02.040Z,6
2024-05-09T10:35:02.055Z,7
2024-05-09T10:36:01.837Z,7
2024-05-09T10:37:04.189Z,6
2024-05-09T10:38:01.834Z,7
2024-05-09T10:39:01.849Z,7
2024-05-09T10:40:01.864Z,7
2024-05-09T10:41:01.841Z,6
2024-05-09T10:42:01.838Z,6
2024-05-09T10:43:04.685Z,7
2024-05-09T10:44:01.844Z,7
2024-05-09T10:45:01.889Z,7
2024-05-09T10:46:01.850Z,7
2024-05-09T10:47:01.848Z,6
2024-05-09T10:48:02.081Z,7
2024-05-09T10:49:05.161Z,7
2024-05-09T10:50:01.927Z,7
2024-05-09T10:51:01.855Z,7
2024-05-09T10:52:01.991Z,6
2024-05-09T10:53:01.840Z,6
2024-05-09T10:54:01.848Z,6
2024-05-09T10:55:05.415Z,7
2024-05-09T10:56:01.853Z,7
2024-05-09T10:57:01.856Z,7
2024-05-09T10:58:01.870Z,7
2024-05-09T10:59:01.893Z,7
2024-05-09T11:00:01.876Z,7
2024-05-09T11:01:05.397Z,7
2024-05-09T11:02:01.956Z,7
2024-05-09T11:03:01.976Z,6
2024-05-09T11:04:02.105Z,5
2024-05-09T11:05:01.997Z,7
2024-05-09T11:06:01.850Z,6
2024-05-09T11:07:05.122Z,6
2024-05-09T11:08:01.892Z,6
2024-05-09T11:09:01.863Z,6
2024-05-09T11:10:01.984Z,7
2024-05-09T11:11:01.849Z,7
2024-05-09T11:12:01.895Z,8
2024-05-09T11:13:01.921Z,6
2024-05-09T11:14:01.864Z,7
2024-05-09T11:15:01.858Z,7
2024-05-09T11:16:01.923Z,7
2024-05-09T11:17:01.942Z,7
2024-05-09T11:18:01.951Z,6
2024-05-09T11:19:02.214Z,6
2024-05-09T11:20:01.961Z,7
2024-05-09T11:21:01.865Z,7
2024-05-09T11:22:01.991Z,7
2024-05-09T11:23:01.862Z,6
2024-05-09T11:24:01.869Z,6
2024-05-09T11:25:01.898Z,6
2024-05-09T11:26:01.883Z,6
2024-05-09T11:27:01.875Z,6
2024-05-09T11:28:01.977Z,6
2024-05-09T11:29:01.875Z,7
2024-05-09T11:30:01.936Z,7
2024-05-09T11:31:01.921Z,7
2024-05-09T11:32:01.914Z,7
2024-05-09T11:33:01.923Z,7
2024-05-09T11:34:01.874Z,6
2024-05-09T11:35:01.913Z,6
2024-05-09T11:36:01.873Z,7
2024-05-09T11:37:01.937Z,6
2024-05-09T11:38:01.873Z,7
2024-05-09T11:39:01.874Z,7
2024-05-09T11:40:01.989Z,7
2024-05-09T11:41:01.891Z,7
2024-05-09T11:42:01.888Z,8
2024-05-09T11:43:01.954Z,7
2024-05-09T11:44:01.893Z,8
2024-05-09T11:45:01.894Z,7
2024-05-09T11:46:01.916Z,6
2024-05-09T11:47:01.885Z,6
2024-05-09T11:48:02.151Z,6
2024-05-09T11:49:02.171Z,7
2024-05-09T11:50:02.002Z,5
2024-05-09T11:51:01.877Z,6
2024-05-09T11:52:01.954Z,5
2024-05-09T11:53:01.890Z,6
2024-05-09T11:54:01.897Z,6
2024-05-09T11:55:01.981Z,6
2024-05-09T11:56:01.882Z,8
2024-05-09T11:57:01.894Z,7
2024-05-09T11:58:01.940Z,7
2024-05-09T11:59:01.883Z,7
2024-05-09T12:00:02.340Z,7
2024-05-09T12:01:02.050Z,6
2024-05-09T12:02:02.039Z,7
2024-05-09T12:03:01.937Z,6
2024-05-09T12:04:02.181Z,7
2024-05-09T12:05:02.084Z,7
2024-05-09T12:06:02.084Z,7
2024-05-09T12:07:01.950Z,7
2024-05-09T12:08:02.043Z,7
2024-05-09T12:09:01.900Z,7
2024-05-09T12:10:07.868Z,6
2024-05-09T12:11:01.999Z,7
2024-05-09T12:12:01.907Z,6
2024-05-09T12:13:02.226Z,5
2024-05-09T12:14:01.931Z,5
2024-05-09T12:15:01.907Z,5
2024-05-09T12:16:02.012Z,5
2024-05-09T12:17:01.934Z,6
2024-05-09T12:18:03.898Z,6
2024-05-09T12:19:02.115Z,6
2024-05-09T12:20:01.906Z,7
2024-05-09T12:21:01.903Z,7
2024-05-09T12:22:01.953Z,6
2024-05-09T12:23:01.902Z,6
2024-05-09T12:24:01.904Z,7
2024-05-09T12:25:01.930Z,6
2024-05-09T12:26:01.969Z,6
2024-05-09T12:27:01.896Z,6
2024-05-09T12:28:02.082Z,6
2024-05-09T12:29:01.918Z,6
2024-05-09T12:30:01.909Z,6
2024-05-09T12:31:01.978Z,6
2024-05-09T12:32:02.735Z,6
2024-05-09T12:33:01.953Z,6
2024-05-09T12:34:02.064Z,7
2024-05-09T12:35:01.924Z,7
2024-05-09T12:36:01.913Z,7
2024-05-09T12:37:01.959Z,6
2024-05-09T12:38:01.924Z,6
2024-05-09T12:39:01.921Z,6
2024-05-09T12:40:02.828Z,6
2024-05-09T12:41:02.021Z,5
2024-05-09T12:42:01.912Z,6
2024-05-09T12:43:01.955Z,7
2024-05-09T12:44:01.927Z,7
2024-05-09T12:45:01.932Z,6
2024-05-09T12:46:02.153Z,7
2024-05-09T12:47:01.916Z,6
2024-05-09T12:48:02.104Z,6
2024-05-09T12:49:02.134Z,5
2024-05-09T12:50:02.000Z,5
2024-05-09T12:51:01.928Z,5
2024-05-09T12:52:01.987Z,6
2024-05-09T12:53:03.035Z,5
2024-05-09T12:54:01.934Z,4
2024-05-09T12:55:01.984Z,6
2024-05-09T12:56:03.655Z,7
2024-05-09T12:57:01.926Z,6
2024-05-09T12:58:01.982Z,6
2024-05-09T12:59:01.928Z,6
2024-05-09T13:00:02.944Z,7
2024-05-09T13:01:02.134Z,6
2024-05-09T13:02:02.074Z,6
2024-05-09T13:04:02.284Z,6
2024-05-09T13:05:02.240Z,6
2024-05-09T13:06:01.942Z,6
2024-05-09T13:07:03.695Z,6
2024-05-09T13:08:01.987Z,6
2024-05-09T13:09:01.942Z,6
2024-05-09T13:11:01.934Z,6
2024-05-09T13:12:01.972Z,5
2024-05-09T13:13:02.396Z,5
2024-05-09T13:14:01.945Z,5
2024-05-09T13:15:01.954Z,5
2024-05-09T13:16:01.983Z,5
2024-05-09T13:17:02.006Z,5
2024-05-09T13:18:03.532Z,5
2024-05-09T13:19:01.979Z,5
2024-05-09T13:20:03.291Z,5
2024-05-09T13:21:01.939Z,4
2024-05-09T13:22:02.007Z,4
2024-05-09T13:23:02.223Z,6
2024-05-09T13:24:01.980Z,5
2024-05-09T13:25:02.000Z,5
2024-05-09T13:26:01.953Z,5
2024-05-09T13:27:01.955Z,5
2024-05-09T13:28:02.093Z,4
2024-05-09T13:29:01.952Z,5
2024-05-09T13:30:01.953Z,6
2024-05-09T13:31:01.978Z,5
2024-05-09T13:32:01.988Z,6
2024-05-09T13:33:02.197Z,6
2024-05-09T13:34:02.309Z,5
2024-05-09T13:35:01.979Z,5
2024-05-09T13:36:01.963Z,5
2024-05-09T13:37:01.975Z,5
2024-05-09T13:38:01.969Z,5
2024-05-09T13:39:01.957Z,5
2024-05-09T13:40:02.003Z,5
2024-05-09T13:41:01.957Z,4
2024-05-09T13:42:01.958Z,6
2024-05-09T13:43:02.392Z,6
2024-05-09T13:44:01.956Z,6
2024-05-09T13:45:01.956Z,5
2024-05-09T13:46:01.988Z,6
2024-05-09T13:47:02.002Z,5
2024-05-09T13:48:02.512Z,5
2024-05-09T13:49:02.145Z,5
2024-05-09T13:50:02.759Z,5
2024-05-09T13:51:01.968Z,5
2024-05-09T13:52:02.018Z,5
2024-05-09T13:53:02.194Z,5
2024-05-09T13:54:01.966Z,4
2024-05-09T13:55:02.011Z,5
2024-05-09T13:56:01.984Z,5
2024-05-09T13:57:01.977Z,5
2024-05-09T13:58:02.101Z,5
2024-05-09T14:00:03.601Z,5
2024-05-09T14:01:02.252Z,5
2024-05-09T14:02:02.107Z,5
2024-05-09T14:03:02.186Z,4
2024-05-09T14:04:02.093Z,5
2024-05-09T14:05:02.224Z,6
2024-05-09T14:06:02.072Z,5
2024-05-09T14:07:02.027Z,4
2024-05-09T14:08:02.008Z,4
2024-05-09T14:09:01.985Z,4
2024-05-09T14:10:02.050Z,4
2024-05-09T14:11:02.135Z,5
2024-05-09T14:12:01.983Z,5
2024-05-09T14:13:02.132Z,4
2024-05-09T14:14:01.978Z,4
2024-05-09T14:15:02.024Z,5
2024-05-09T14:16:02.052Z,5
2024-05-09T14:17:02.051Z,4
2024-05-09T14:18:02.065Z,4
2024-05-09T14:19:02.146Z,4
2024-05-09T14:20:02.383Z,4
2024-05-09T14:21:01.999Z,4
2024-05-09T14:22:02.037Z,4
2024-05-09T14:23:02.038Z,5
2024-05-09T14:24:01.986Z,5
2024-05-09T14:25:02.068Z,5
2024-05-09T14:26:01.993Z,5
2024-05-09T14:27:01.989Z,5
2024-05-09T14:28:02.037Z,4
2024-05-09T14:29:02.001Z,5
2024-05-09T14:30:02.319Z,5
2024-05-09T14:31:02.062Z,5
2024-05-09T14:32:02.005Z,5
2024-05-09T14:33:02.121Z,7
2024-05-09T14:34:02.205Z,7
2024-05-09T14:35:02.037Z,6
2024-05-09T14:36:01.987Z,6
2024-05-09T14:37:02.034Z,7
2024-05-09T14:38:01.995Z,8